sensor_id;sensor_type;location;lat;lon;timestamp;P1;durP1;ratioP1;P2;durP2;ratioP2
35540;SDS011;21650;48.840;9.162;2023-07-20T00:01:40;2.93;;;1.63;;
35540;SDS011;21650;48.840;9.162;2023-07-20T00:04:09;3.20;;;1.87;;
35540;SDS011;21650;48.840;9.162;2023-07-20T00:06:35;6.73;;;2.03;;
35540;SDS011;21650;48.840;9.162;2023-07-20T00:09:01;3.53;;;1.53;;
35540;SDS011;21650;48.840;9.162;2023-07-20T00:11:27;4.03;;;1.80;;
35540;SDS011;21650;48.840;9.162;2023-07-20T00:13:53;4.57;;;2.17;;
35540;SDS011;21650;48.840;9.162;2023-07-20T00:16:18;3.27;;;1.80;;
35540;SDS011;21650;48.840;9.162;2023-07-20T00:18:44;2.60;;;1.70;;
35540;SDS011;21650;48.840;9.162;2023-07-20T00:21:09;3.27;;;1.77;;
35540;SDS011;21650;48.840;9.162;2023-07-20T00:23:35;2.00;;;1.60;;
35540;SDS011;21650;48.840;9.162;2023-07-20T00:26:01;3.30;;;1.70;;
35540;SDS011;21650;48.840;9.162;2023-07-20T00:28:27;3.23;;;1.80;;
35540;SDS011;21650;48.840;9.162;2023-07-20T00:30:53;3.87;;;2.10;;
35540;SDS011;21650;48.840;9.162;2023-07-20T00:33:18;2.97;;;1.70;;
35540;SDS011;21650;48.840;9.162;2023-07-20T00:35:44;3.80;;;1.53;;
35540;SDS011;21650;48.840;9.162;2023-07-20T00:38:09;2.90;;;1.60;;
35540;SDS011;21650;48.840;9.162;2023-07-20T00:40:36;3.80;;;1.63;;
35540;SDS011;21650;48.840;9.162;2023-07-20T00:43:02;2.27;;;1.43;;
35540;SDS011;21650;48.840;9.162;2023-07-20T00:45:28;2.10;;;1.53;;
35540;SDS011;21650;48.840;9.162;2023-07-20T00:47:54;2.60;;;1.30;;
35540;SDS011;21650;48.840;9.162;2023-07-20T00:50:20;3.27;;;1.60;;
35540;SDS011;21650;48.840;9.162;2023-07-20T00:52:46;2.57;;;1.53;;
35540;SDS011;21650;48.840;9.162;2023-07-20T00:55:11;3.03;;;1.70;;
35540;SDS011;21650;48.840;9.162;2023-07-20T00:57:37;2.67;;;1.60;;
35540;SDS011;21650;48.840;9.162;2023-07-20T01:00:03;3.07;;;1.93;;
35540;SDS011;21650;48.840;9.162;2023-07-20T01:02:29;2.40;;;1.43;;
35540;SDS011;21650;48.840;9.162;2023-07-20T01:04:55;2.03;;;1.60;;
35540;SDS011;21650;48.840;9.162;2023-07-20T01:07:27;1.93;;;1.37;;
35540;SDS011;21650;48.840;9.162;2023-07-20T01:10:20;1.90;;;1.47;;
35540;SDS011;21650;48.840;9.162;2023-07-20T01:12:52;2.40;;;1.40;;
35540;SDS011;21650;48.840;9.162;2023-07-20T01:15:18;3.20;;;1.60;;
35540;SDS011;21650;48.840;9.162;2023-07-20T01:17:44;2.03;;;1.67;;
35540;SDS011;21650;48.840;9.162;2023-07-20T01:20:12;2.33;;;1.60;;
35540;SDS011;21650;48.840;9.162;2023-07-20T01:31:45;2.10;;;1.30;;
35540;SDS011;21650;48.840;9.162;2023-07-20T01:34:15;6.00;;;2.07;;
35540;SDS011;21650;48.840;9.162;2023-07-20T01:36:44;4.37;;;1.83;;
35540;SDS011;21650;48.840;9.162;2023-07-20T01:39:11;3.87;;;2.03;;
35540;SDS011;21650;48.840;9.162;2023-07-20T01:41:37;4.77;;;1.90;;
35540;SDS011;21650;48.840;9.162;2023-07-20T01:44:03;3.70;;;1.67;;
35540;SDS011;21650;48.840;9.162;2023-07-20T01:46:29;3.13;;;1.33;;
35540;SDS011;21650;48.840;9.162;2023-07-20T01:48:54;3.40;;;1.73;;
35540;SDS011;21650;48.840;9.162;2023-07-20T01:51:20;6.07;;;1.63;;
35540;SDS011;21650;48.840;9.162;2023-07-20T01:53:46;4.13;;;1.90;;
35540;SDS011;21650;48.840;9.162;2023-07-20T01:56:12;4.70;;;1.97;;
35540;SDS011;21650;48.840;9.162;2023-07-20T02:01:56;2.77;;;1.63;;
35540;SDS011;21650;48.840;9.162;2023-07-20T02:04:21;3.70;;;1.87;;
35540;SDS011;21650;48.840;9.162;2023-07-20T02:06:47;4.83;;;1.63;;
35540;SDS011;21650;48.840;9.162;2023-07-20T02:09:12;4.83;;;1.90;;
35540;SDS011;21650;48.840;9.162;2023-07-20T02:11:38;4.00;;;1.87;;
35540;SDS011;21650;48.840;9.162;2023-07-20T02:14:03;3.77;;;1.70;;
35540;SDS011;21650;48.840;9.162;2023-07-20T02:16:29;2.30;;;1.80;;
35540;SDS011;21650;48.840;9.162;2023-07-20T02:18:55;5.73;;;1.63;;
35540;SDS011;21650;48.840;9.162;2023-07-20T02:21:22;3.00;;;1.50;;
35540;SDS011;21650;48.840;9.162;2023-07-20T02:23:48;3.57;;;1.83;;
35540;SDS011;21650;48.840;9.162;2023-07-20T02:26:13;2.27;;;1.90;;
35540;SDS011;21650;48.840;9.162;2023-07-20T02:28:39;5.43;;;2.63;;
35540;SDS011;21650;48.840;9.162;2023-07-20T02:31:06;2.87;;;1.97;;
35540;SDS011;21650;48.840;9.162;2023-07-20T02:33:31;2.90;;;2.00;;
35540;SDS011;21650;48.840;9.162;2023-07-20T02:35:57;3.03;;;1.90;;
35540;SDS011;21650;48.840;9.162;2023-07-20T02:38:23;3.60;;;1.93;;
35540;SDS011;21650;48.840;9.162;2023-07-20T02:40:49;2.93;;;2.27;;
35540;SDS011;21650;48.840;9.162;2023-07-20T02:43:15;2.17;;;1.63;;
35540;SDS011;21650;48.840;9.162;2023-07-20T02:45:41;4.43;;;2.20;;
35540;SDS011;21650;48.840;9.162;2023-07-20T02:48:09;2.33;;;1.73;;
35540;SDS011;21650;48.840;9.162;2023-07-20T02:50:35;3.80;;;1.73;;
35540;SDS011;21650;48.840;9.162;2023-07-20T02:53:01;4.03;;;2.77;;
35540;SDS011;21650;48.840;9.162;2023-07-20T02:55:27;2.53;;;1.80;;
35540;SDS011;21650;48.840;9.162;2023-07-20T02:57:53;3.83;;;1.87;;
35540;SDS011;21650;48.840;9.162;2023-07-20T03:00:18;3.87;;;2.03;;
35540;SDS011;21650;48.840;9.162;2023-07-20T03:02:45;3.77;;;1.80;;
35540;SDS011;21650;48.840;9.162;2023-07-20T03:05:17;2.70;;;1.80;;
35540;SDS011;21650;48.840;9.162;2023-07-20T03:07:42;3.80;;;2.20;;
35540;SDS011;21650;48.840;9.162;2023-07-20T03:10:08;3.13;;;2.10;;
35540;SDS011;21650;48.840;9.162;2023-07-20T03:12:34;3.83;;;1.77;;
35540;SDS011;21650;48.840;9.162;2023-07-20T03:15:01;1.80;;;1.40;;
35540;SDS011;21650;48.840;9.162;2023-07-20T03:17:28;3.07;;;1.67;;
35540;SDS011;21650;48.840;9.162;2023-07-20T03:19:53;5.20;;;2.60;;
35540;SDS011;21650;48.840;9.162;2023-07-20T03:22:19;2.83;;;2.23;;
35540;SDS011;21650;48.840;9.162;2023-07-20T03:24:46;4.10;;;1.87;;
35540;SDS011;21650;48.840;9.162;2023-07-20T03:27:12;5.03;;;1.70;;
35540;SDS011;21650;48.840;9.162;2023-07-20T03:29:38;5.13;;;1.83;;
35540;SDS011;21650;48.840;9.162;2023-07-20T03:32:03;3.40;;;1.77;;
35540;SDS011;21650;48.840;9.162;2023-07-20T03:34:29;2.90;;;1.73;;
35540;SDS011;21650;48.840;9.162;2023-07-20T03:36:55;4.40;;;1.90;;
35540;SDS011;21650;48.840;9.162;2023-07-20T03:39:21;2.63;;;1.80;;
35540;SDS011;21650;48.840;9.162;2023-07-20T03:41:47;3.57;;;2.00;;
35540;SDS011;21650;48.840;9.162;2023-07-20T03:44:13;3.83;;;1.80;;
35540;SDS011;21650;48.840;9.162;2023-07-20T03:46:38;3.00;;;2.07;;
35540;SDS011;21650;48.840;9.162;2023-07-20T03:49:04;3.90;;;2.30;;
35540;SDS011;21650;48.840;9.162;2023-07-20T03:51:31;2.07;;;1.87;;
35540;SDS011;21650;48.840;9.162;2023-07-20T03:53:57;4.00;;;2.37;;
35540;SDS011;21650;48.840;9.162;2023-07-20T03:56:23;3.73;;;2.00;;
35540;SDS011;21650;48.840;9.162;2023-07-20T03:58:49;4.00;;;2.20;;
35540;SDS011;21650;48.840;9.162;2023-07-20T04:01:14;2.87;;;2.00;;
35540;SDS011;21650;48.840;9.162;2023-07-20T04:03:41;4.10;;;2.50;;
35540;SDS011;21650;48.840;9.162;2023-07-20T04:06:08;3.17;;;2.03;;
35540;SDS011;21650;48.840;9.162;2023-07-20T04:08:33;3.70;;;2.27;;
35540;SDS011;21650;48.840;9.162;2023-07-20T04:11:01;3.50;;;2.03;;
35540;SDS011;21650;48.840;9.162;2023-07-20T04:13:27;3.17;;;2.13;;
35540;SDS011;21650;48.840;9.162;2023-07-20T04:15:53;2.77;;;2.03;;
35540;SDS011;21650;48.840;9.162;2023-07-20T04:18:18;3.73;;;2.10;;
35540;SDS011;21650;48.840;9.162;2023-07-20T04:20:44;2.70;;;1.80;;
35540;SDS011;21650;48.840;9.162;2023-07-20T04:23:10;4.47;;;2.20;;
35540;SDS011;21650;48.840;9.162;2023-07-20T04:25:36;2.33;;;1.87;;
35540;SDS011;21650;48.840;9.162;2023-07-20T04:28:06;3.13;;;1.87;;
35540;SDS011;21650;48.840;9.162;2023-07-20T04:30:35;3.77;;;1.87;;
35540;SDS011;21650;48.840;9.162;2023-07-20T04:33:02;2.37;;;1.97;;
35540;SDS011;21650;48.840;9.162;2023-07-20T04:35:48;3.63;;;2.03;;
35540;SDS011;21650;48.840;9.162;2023-07-20T04:38:18;4.27;;;1.63;;
35540;SDS011;21650;48.840;9.162;2023-07-20T04:40:45;1.90;;;1.63;;
35540;SDS011;21650;48.840;9.162;2023-07-20T04:43:11;2.43;;;1.90;;
35540;SDS011;21650;48.840;9.162;2023-07-20T04:45:37;3.83;;;1.67;;
35540;SDS011;21650;48.840;9.162;2023-07-20T04:48:02;2.07;;;1.67;;
35540;SDS011;21650;48.840;9.162;2023-07-20T04:50:28;2.97;;;1.90;;
35540;SDS011;21650;48.840;9.162;2023-07-20T04:52:54;3.53;;;2.03;;
35540;SDS011;21650;48.840;9.162;2023-07-20T04:55:19;4.73;;;2.50;;
35540;SDS011;21650;48.840;9.162;2023-07-20T04:57:45;4.40;;;2.30;;
35540;SDS011;21650;48.840;9.162;2023-07-20T05:00:11;3.93;;;2.37;;
35540;SDS011;21650;48.840;9.162;2023-07-20T05:02:38;5.30;;;2.50;;
35540;SDS011;21650;48.840;9.162;2023-07-20T05:05:03;5.13;;;2.30;;
35540;SDS011;21650;48.840;9.162;2023-07-20T05:07:31;3.93;;;1.97;;
35540;SDS011;21650;48.840;9.162;2023-07-20T05:09:57;6.67;;;2.20;;
35540;SDS011;21650;48.840;9.162;2023-07-20T05:12:23;2.87;;;1.73;;
35540;SDS011;21650;48.840;9.162;2023-07-20T05:14:48;4.37;;;2.17;;
35540;SDS011;21650;48.840;9.162;2023-07-20T05:17:14;6.17;;;2.03;;
35540;SDS011;21650;48.840;9.162;2023-07-20T05:19:39;3.30;;;2.07;;
35540;SDS011;21650;48.840;9.162;2023-07-20T05:22:05;4.40;;;2.13;;
35540;SDS011;21650;48.840;9.162;2023-07-20T05:24:31;5.77;;;2.27;;
35540;SDS011;21650;48.840;9.162;2023-07-20T05:26:57;5.73;;;2.00;;
35540;SDS011;21650;48.840;9.162;2023-07-20T05:29:23;1.83;;;1.60;;
35540;SDS011;21650;48.840;9.162;2023-07-20T05:31:49;2.57;;;1.70;;
35540;SDS011;21650;48.840;9.162;2023-07-20T05:34:14;7.63;;;2.03;;
35540;SDS011;21650;48.840;9.162;2023-07-20T05:36:40;3.57;;;2.27;;
35540;SDS011;21650;48.840;9.162;2023-07-20T05:39:06;3.80;;;1.93;;
35540;SDS011;21650;48.840;9.162;2023-07-20T05:41:31;4.67;;;2.20;;
35540;SDS011;21650;48.840;9.162;2023-07-20T05:43:57;8.13;;;2.40;;
35540;SDS011;21650;48.840;9.162;2023-07-20T05:46:22;5.53;;;1.83;;
35540;SDS011;21650;48.840;9.162;2023-07-20T05:48:49;2.67;;;1.90;;
35540;SDS011;21650;48.840;9.162;2023-07-20T05:51:15;4.10;;;2.00;;
35540;SDS011;21650;48.840;9.162;2023-07-20T05:53:40;3.70;;;2.03;;
35540;SDS011;21650;48.840;9.162;2023-07-20T05:56:06;6.87;;;2.33;;
35540;SDS011;21650;48.840;9.162;2023-07-20T05:58:35;4.40;;;1.93;;
35540;SDS011;21650;48.840;9.162;2023-07-20T06:01:01;4.10;;;2.00;;
35540;SDS011;21650;48.840;9.162;2023-07-20T06:03:27;4.57;;;1.87;;
35540;SDS011;21650;48.840;9.162;2023-07-20T06:05:57;2.03;;;1.67;;
35540;SDS011;21650;48.840;9.162;2023-07-20T06:08:30;4.67;;;1.67;;
35540;SDS011;21650;48.840;9.162;2023-07-20T06:10:56;3.30;;;1.70;;
35540;SDS011;21650;48.840;9.162;2023-07-20T06:13:22;3.13;;;1.87;;
35540;SDS011;21650;48.840;9.162;2023-07-20T06:15:49;2.10;;;1.60;;
35540;SDS011;21650;48.840;9.162;2023-07-20T06:18:14;3.17;;;1.57;;
35540;SDS011;21650;48.840;9.162;2023-07-20T06:20:40;5.20;;;2.30;;
35540;SDS011;21650;48.840;9.162;2023-07-20T06:23:06;4.47;;;1.67;;
35540;SDS011;21650;48.840;9.162;2023-07-20T06:25:31;3.17;;;1.60;;
35540;SDS011;21650;48.840;9.162;2023-07-20T06:27:57;4.17;;;1.80;;
35540;SDS011;21650;48.840;9.162;2023-07-20T06:30:23;1.90;;;1.60;;
35540;SDS011;21650;48.840;9.162;2023-07-20T06:32:49;2.50;;;1.83;;
35540;SDS011;21650;48.840;9.162;2023-07-20T06:35:15;5.43;;;1.70;;
35540;SDS011;21650;48.840;9.162;2023-07-20T06:37:42;3.60;;;1.60;;
35540;SDS011;21650;48.840;9.162;2023-07-20T06:40:08;4.90;;;1.60;;
35540;SDS011;21650;48.840;9.162;2023-07-20T06:42:34;2.10;;;1.53;;
35540;SDS011;21650;48.840;9.162;2023-07-20T06:45:00;2.57;;;1.53;;
35540;SDS011;21650;48.840;9.162;2023-07-20T06:47:26;3.50;;;1.83;;
35540;SDS011;21650;48.840;9.162;2023-07-20T06:49:52;4.10;;;1.57;;
35540;SDS011;21650;48.840;9.162;2023-07-20T06:52:17;4.07;;;1.53;;
35540;SDS011;21650;48.840;9.162;2023-07-20T06:54:43;5.17;;;2.30;;
35540;SDS011;21650;48.840;9.162;2023-07-20T06:57:09;5.20;;;1.87;;
35540;SDS011;21650;48.840;9.162;2023-07-20T06:59:34;3.83;;;1.77;;
35540;SDS011;21650;48.840;9.162;2023-07-20T07:02:00;1.80;;;1.57;;
35540;SDS011;21650;48.840;9.162;2023-07-20T07:04:26;3.40;;;1.97;;
35540;SDS011;21650;48.840;9.162;2023-07-20T07:06:52;2.27;;;1.80;;
35540;SDS011;21650;48.840;9.162;2023-07-20T07:09:17;4.03;;;2.30;;
35540;SDS011;21650;48.840;9.162;2023-07-20T07:11:43;6.43;;;2.27;;
35540;SDS011;21650;48.840;9.162;2023-07-20T07:14:09;4.87;;;1.67;;
35540;SDS011;21650;48.840;9.162;2023-07-20T07:16:37;4.17;;;1.70;;
35540;SDS011;21650;48.840;9.162;2023-07-20T07:19:02;7.60;;;2.10;;
35540;SDS011;21650;48.840;9.162;2023-07-20T07:21:28;8.83;;;1.80;;
35540;SDS011;21650;48.840;9.162;2023-07-20T07:23:54;2.60;;;1.43;;
35540;SDS011;21650;48.840;9.162;2023-07-20T07:26:22;1.90;;;1.70;;
35540;SDS011;21650;48.840;9.162;2023-07-20T07:28:48;5.47;;;1.77;;
35540;SDS011;21650;48.840;9.162;2023-07-20T07:31:14;5.33;;;1.90;;
35540;SDS011;21650;48.840;9.162;2023-07-20T07:33:40;4.13;;;1.77;;
35540;SDS011;21650;48.840;9.162;2023-07-20T07:36:05;5.77;;;1.90;;
35540;SDS011;21650;48.840;9.162;2023-07-20T07:38:31;11.43;;;2.80;;
35540;SDS011;21650;48.840;9.162;2023-07-20T07:40:58;5.90;;;2.00;;
35540;SDS011;21650;48.840;9.162;2023-07-20T07:43:24;3.93;;;2.17;;
35540;SDS011;21650;48.840;9.162;2023-07-20T07:45:49;3.20;;;1.90;;
35540;SDS011;21650;48.840;9.162;2023-07-20T07:48:15;7.83;;;2.03;;
35540;SDS011;21650;48.840;9.162;2023-07-20T07:50:42;5.10;;;1.93;;
35540;SDS011;21650;48.840;9.162;2023-07-20T07:53:07;2.37;;;1.80;;
35540;SDS011;21650;48.840;9.162;2023-07-20T07:55:33;3.03;;;1.90;;
35540;SDS011;21650;48.840;9.162;2023-07-20T07:58:00;4.13;;;2.47;;
35540;SDS011;21650;48.840;9.162;2023-07-20T08:00:26;2.07;;;1.73;;
35540;SDS011;21650;48.840;9.162;2023-07-20T08:02:51;3.13;;;2.43;;
35540;SDS011;21650;48.840;9.162;2023-07-20T08:05:17;3.30;;;2.07;;
35540;SDS011;21650;48.840;9.162;2023-07-20T08:07:43;4.90;;;1.70;;
35540;SDS011;21650;48.840;9.162;2023-07-20T08:10:08;4.87;;;1.90;;
35540;SDS011;21650;48.840;9.162;2023-07-20T08:12:34;3.40;;;1.87;;
35540;SDS011;21650;48.840;9.162;2023-07-20T08:15:00;2.87;;;1.93;;
35540;SDS011;21650;48.840;9.162;2023-07-20T08:17:25;3.40;;;1.80;;
35540;SDS011;21650;48.840;9.162;2023-07-20T08:19:51;3.10;;;1.60;;
35540;SDS011;21650;48.840;9.162;2023-07-20T08:22:17;3.13;;;1.80;;
35540;SDS011;21650;48.840;9.162;2023-07-20T08:24:42;5.43;;;2.07;;
35540;SDS011;21650;48.840;9.162;2023-07-20T08:27:08;3.30;;;2.00;;
35540;SDS011;21650;48.840;9.162;2023-07-20T08:29:34;4.03;;;2.37;;
35540;SDS011;21650;48.840;9.162;2023-07-20T08:32:00;4.03;;;1.83;;
35540;SDS011;21650;48.840;9.162;2023-07-20T08:34:26;6.47;;;2.00;;
35540;SDS011;21650;48.840;9.162;2023-07-20T08:36:52;2.17;;;1.40;;
35540;SDS011;21650;48.840;9.162;2023-07-20T08:39:17;4.43;;;1.83;;
35540;SDS011;21650;48.840;9.162;2023-07-20T08:41:44;2.50;;;1.80;;
35540;SDS011;21650;48.840;9.162;2023-07-20T08:44:10;8.67;;;1.50;;
35540;SDS011;21650;48.840;9.162;2023-07-20T08:46:36;4.53;;;1.80;;
35540;SDS011;21650;48.840;9.162;2023-07-20T08:49:04;6.23;;;2.03;;
35540;SDS011;21650;48.840;9.162;2023-07-20T08:51:30;2.60;;;1.50;;
35540;SDS011;21650;48.840;9.162;2023-07-20T08:53:59;3.67;;;1.60;;
35540;SDS011;21650;48.840;9.162;2023-07-20T08:56:25;5.77;;;1.67;;
35540;SDS011;21650;48.840;9.162;2023-07-20T08:58:54;6.93;;;1.80;;
35540;SDS011;21650;48.840;9.162;2023-07-20T09:01:21;6.20;;;1.80;;
35540;SDS011;21650;48.840;9.162;2023-07-20T09:03:47;2.90;;;1.73;;
35540;SDS011;21650;48.840;9.162;2023-07-20T09:06:13;3.20;;;1.60;;
35540;SDS011;21650;48.840;9.162;2023-07-20T09:08:39;3.05;;;1.65;;
35540;SDS011;21650;48.840;9.162;2023-07-20T09:11:05;3.97;;;1.77;;
35540;SDS011;21650;48.840;9.162;2023-07-20T09:13:34;7.57;;;1.88;;
35540;SDS011;21650;48.840;9.162;2023-07-20T09:16:00;1.98;;;1.50;;
35540;SDS011;21650;48.840;9.162;2023-07-20T09:18:30;4.03;;;1.87;;
35540;SDS011;21650;48.840;9.162;2023-07-20T09:21:03;4.60;;;1.37;;
35540;SDS011;21650;48.840;9.162;2023-07-20T09:23:37;6.93;;;2.17;;
35540;SDS011;21650;48.840;9.162;2023-07-20T09:26:11;3.00;;;1.47;;
35540;SDS011;21650;48.840;9.162;2023-07-20T09:29:10;2.43;;;2.07;;
35540;SDS011;21650;48.840;9.162;2023-07-20T09:31:32;1.97;;;1.70;;
35540;SDS011;21650;48.840;9.162;2023-07-20T09:33:57;3.40;;;1.83;;
35540;SDS011;21650;48.840;9.162;2023-07-20T09:36:23;5.25;;;1.67;;
35540;SDS011;21650;48.840;9.162;2023-07-20T09:38:51;2.97;;;1.20;;
35540;SDS011;21650;48.840;9.162;2023-07-20T09:41:16;2.90;;;1.40;;
35540;SDS011;21650;48.840;9.162;2023-07-20T09:43:43;4.82;;;1.67;;
35540;SDS011;21650;48.840;9.162;2023-07-20T09:46:10;1.63;;;1.10;;
35540;SDS011;21650;48.840;9.162;2023-07-20T09:48:36;1.67;;;1.05;;
35540;SDS011;21650;48.840;9.162;2023-07-20T09:51:02;2.47;;;0.95;;
35540;SDS011;21650;48.840;9.162;2023-07-20T09:53:28;1.90;;;1.20;;
35540;SDS011;21650;48.840;9.162;2023-07-20T09:55:54;1.50;;;1.23;;
35540;SDS011;21650;48.840;9.162;2023-07-20T09:58:21;2.17;;;1.27;;
35540;SDS011;21650;48.840;9.162;2023-07-20T10:00:47;2.45;;;1.52;;
35540;SDS011;21650;48.840;9.162;2023-07-20T10:03:18;2.55;;;1.70;;
35540;SDS011;21650;48.840;9.162;2023-07-20T10:05:48;2.22;;;1.45;;
35540;SDS011;21650;48.840;9.162;2023-07-20T10:08:23;1.88;;;1.10;;
35540;SDS011;21650;48.840;9.162;2023-07-20T10:10:50;2.38;;;1.50;;
35540;SDS011;21650;48.840;9.162;2023-07-20T10:13:25;2.33;;;1.20;;
35540;SDS011;21650;48.840;9.162;2023-07-20T10:16:09;1.33;;;1.00;;
35540;SDS011;21650;48.840;9.162;2023-07-20T10:21:17;2.20;;;1.15;;
35540;SDS011;21650;48.840;9.162;2023-07-20T10:23:44;1.73;;;1.10;;
35540;SDS011;21650;48.840;9.162;2023-07-20T10:26:11;3.50;;;1.15;;
35540;SDS011;21650;48.840;9.162;2023-07-20T10:28:38;1.27;;;0.97;;
35540;SDS011;21650;48.840;9.162;2023-07-20T10:31:04;2.88;;;1.00;;
35540;SDS011;21650;48.840;9.162;2023-07-20T10:33:32;1.58;;;1.00;;
35540;SDS011;21650;48.840;9.162;2023-07-20T10:36:02;1.25;;;0.95;;
35540;SDS011;21650;48.840;9.162;2023-07-20T10:38:42;1.42;;;0.90;;
35540;SDS011;21650;48.840;9.162;2023-07-20T10:41:21;1.52;;;0.88;;
35540;SDS011;21650;48.840;9.162;2023-07-20T10:44:03;1.20;;;1.00;;
35540;SDS011;21650;48.840;9.162;2023-07-20T10:46:33;1.83;;;1.10;;
35540;SDS011;21650;48.840;9.162;2023-07-20T10:49:13;1.83;;;1.20;;
35540;SDS011;21650;48.840;9.162;2023-07-20T10:51:40;1.55;;;1.00;;
35540;SDS011;21650;48.840;9.162;2023-07-20T10:56:43;1.52;;;0.90;;
35540;SDS011;21650;48.840;9.162;2023-07-20T10:59:18;5.93;;;1.10;;
35540;SDS011;21650;48.840;9.162;2023-07-20T11:01:56;3.58;;;1.25;;
35540;SDS011;21650;48.840;9.162;2023-07-20T11:04:37;3.17;;;1.30;;
35540;SDS011;21650;48.840;9.162;2023-07-20T11:07:07;2.17;;;1.02;;
35540;SDS011;21650;48.840;9.162;2023-07-20T11:09:36;2.30;;;1.08;;
35540;SDS011;21650;48.840;9.162;2023-07-20T11:17:14;1.60;;;0.90;;
35540;SDS011;21650;48.840;9.162;2023-07-20T11:19:43;1.90;;;0.88;;
35540;SDS011;21650;48.840;9.162;2023-07-20T11:22:08;1.73;;;1.05;;
35540;SDS011;21650;48.840;9.162;2023-07-20T11:24:38;4.10;;;1.02;;
35540;SDS011;21650;48.840;9.162;2023-07-20T11:27:07;2.88;;;0.90;;
35540;SDS011;21650;48.840;9.162;2023-07-20T11:29:33;2.22;;;1.20;;
35540;SDS011;21650;48.840;9.162;2023-07-20T11:32:00;1.45;;;0.80;;
35540;SDS011;21650;48.840;9.162;2023-07-20T11:34:30;1.20;;;0.77;;
35540;SDS011;21650;48.840;9.162;2023-07-20T11:36:57;1.70;;;1.13;;
35540;SDS011;21650;48.840;9.162;2023-07-20T11:39:22;1.27;;;0.80;;
35540;SDS011;21650;48.840;9.162;2023-07-20T11:41:54;1.73;;;1.05;;
35540;SDS011;21650;48.840;9.162;2023-07-20T11:44:21;3.35;;;1.13;;
35540;SDS011;21650;48.840;9.162;2023-07-20T11:46:53;3.50;;;1.00;;
35540;SDS011;21650;48.840;9.162;2023-07-20T11:49:35;1.77;;;0.95;;
35540;SDS011;21650;48.840;9.162;2023-07-20T11:52:05;1.48;;;1.05;;
35540;SDS011;21650;48.840;9.162;2023-07-20T11:54:33;1.73;;;0.60;;
35540;SDS011;21650;48.840;9.162;2023-07-20T11:57:05;2.38;;;1.00;;
35540;SDS011;21650;48.840;9.162;2023-07-20T11:59:31;3.17;;;1.35;;
35540;SDS011;21650;48.840;9.162;2023-07-20T12:02:06;3.10;;;1.02;;
35540;SDS011;21650;48.840;9.162;2023-07-20T12:04:32;3.08;;;1.10;;
35540;SDS011;21650;48.840;9.162;2023-07-20T12:06:58;1.65;;;1.08;;
35540;SDS011;21650;48.840;9.162;2023-07-20T12:09:24;3.13;;;1.10;;
35540;SDS011;21650;48.840;9.162;2023-07-20T12:11:49;2.10;;;0.98;;
35540;SDS011;21650;48.840;9.162;2023-07-20T12:14:15;2.58;;;1.15;;
35540;SDS011;21650;48.840;9.162;2023-07-20T12:16:42;3.45;;;1.35;;
35540;SDS011;21650;48.840;9.162;2023-07-20T12:19:11;1.88;;;1.17;;
35540;SDS011;21650;48.840;9.162;2023-07-20T12:21:39;2.83;;;1.00;;
35540;SDS011;21650;48.840;9.162;2023-07-20T12:24:06;1.42;;;0.85;;
35540;SDS011;21650;48.840;9.162;2023-07-20T12:26:34;1.35;;;0.80;;
35540;SDS011;21650;48.840;9.162;2023-07-20T12:29:00;1.42;;;1.13;;
35540;SDS011;21650;48.840;9.162;2023-07-20T12:31:26;2.03;;;1.00;;
35540;SDS011;21650;48.840;9.162;2023-07-20T12:33:52;1.60;;;1.00;;
35540;SDS011;21650;48.840;9.162;2023-07-20T12:36:21;2.83;;;1.60;;
35540;SDS011;21650;48.840;9.162;2023-07-20T12:38:47;1.52;;;0.82;;
35540;SDS011;21650;48.840;9.162;2023-07-20T12:41:13;2.60;;;1.13;;
35540;SDS011;21650;48.840;9.162;2023-07-20T12:43:43;3.40;;;1.30;;
35540;SDS011;21650;48.840;9.162;2023-07-20T12:46:10;1.65;;;1.10;;
35540;SDS011;21650;48.840;9.162;2023-07-20T12:48:37;1.48;;;0.90;;
35540;SDS011;21650;48.840;9.162;2023-07-20T12:51:05;18.25;;;2.65;;
35540;SDS011;21650;48.840;9.162;2023-07-20T12:53:31;2.67;;;1.55;;
35540;SDS011;21650;48.840;9.162;2023-07-20T12:55:57;1.48;;;0.90;;
35540;SDS011;21650;48.840;9.162;2023-07-20T12:58:23;3.22;;;0.98;;
35540;SDS011;21650;48.840;9.162;2023-07-20T13:00:49;1.17;;;0.98;;
35540;SDS011;21650;48.840;9.162;2023-07-20T13:03:15;4.25;;;1.10;;
35540;SDS011;21650;48.840;9.162;2023-07-20T13:05:43;2.13;;;0.80;;
35540;SDS011;21650;48.840;9.162;2023-07-20T13:08:09;2.33;;;0.88;;
35540;SDS011;21650;48.840;9.162;2023-07-20T13:10:35;2.10;;;1.00;;
35540;SDS011;21650;48.840;9.162;2023-07-20T13:13:01;2.88;;;0.88;;
35540;SDS011;21650;48.840;9.162;2023-07-20T13:15:40;2.03;;;1.20;;
35540;SDS011;21650;48.840;9.162;2023-07-20T13:18:06;2.25;;;0.82;;
35540;SDS011;21650;48.840;9.162;2023-07-20T13:20:32;1.20;;;0.70;;
35540;SDS011;21650;48.840;9.162;2023-07-20T13:22:58;2.13;;;1.13;;
35540;SDS011;21650;48.840;9.162;2023-07-20T13:25:24;1.52;;;0.90;;
35540;SDS011;21650;48.840;9.162;2023-07-20T13:27:50;2.47;;;1.45;;
35540;SDS011;21650;48.840;9.162;2023-07-20T13:30:15;1.75;;;0.98;;
35540;SDS011;21650;48.840;9.162;2023-07-20T13:32:44;1.00;;;0.90;;
35540;SDS011;21650;48.840;9.162;2023-07-20T13:35:10;5.38;;;1.48;;
35540;SDS011;21650;48.840;9.162;2023-07-20T13:37:37;3.72;;;1.48;;
35540;SDS011;21650;48.840;9.162;2023-07-20T13:40:03;1.80;;;1.20;;
35540;SDS011;21650;48.840;9.162;2023-07-20T13:42:30;1.92;;;0.70;;
35540;SDS011;21650;48.840;9.162;2023-07-20T13:44:56;1.42;;;0.90;;
35540;SDS011;21650;48.840;9.162;2023-07-20T13:47:22;4.72;;;1.42;;
35540;SDS011;21650;48.840;9.162;2023-07-20T13:49:48;2.63;;;0.82;;
35540;SDS011;21650;48.840;9.162;2023-07-20T13:52:13;1.70;;;1.00;;
35540;SDS011;21650;48.840;9.162;2023-07-20T13:54:39;3.60;;;1.00;;
35540;SDS011;21650;48.840;9.162;2023-07-20T13:57:05;1.45;;;1.05;;
35540;SDS011;21650;48.840;9.162;2023-07-20T13:59:31;1.48;;;1.02;;
35540;SDS011;21650;48.840;9.162;2023-07-20T14:01:56;3.15;;;1.20;;
35540;SDS011;21650;48.840;9.162;2023-07-20T14:04:22;3.28;;;1.23;;
35540;SDS011;21650;48.840;9.162;2023-07-20T14:06:47;1.45;;;0.70;;
35540;SDS011;21650;48.840;9.162;2023-07-20T14:09:13;2.45;;;1.00;;
35540;SDS011;21650;48.840;9.162;2023-07-20T14:11:39;2.03;;;0.93;;
35540;SDS011;21650;48.840;9.162;2023-07-20T14:14:04;1.98;;;1.10;;
35540;SDS011;21650;48.840;9.162;2023-07-20T14:16:30;3.72;;;1.00;;
35540;SDS011;21650;48.840;9.162;2023-07-20T14:18:57;1.90;;;1.00;;
35540;SDS011;21650;48.840;9.162;2023-07-20T14:21:23;2.47;;;1.33;;
35540;SDS011;21650;48.840;9.162;2023-07-20T14:23:50;1.83;;;0.82;;
35540;SDS011;21650;48.840;9.162;2023-07-20T14:26:18;1.85;;;0.90;;
35540;SDS011;21650;48.840;9.162;2023-07-20T14:28:43;1.58;;;1.17;;
35540;SDS011;21650;48.840;9.162;2023-07-20T14:31:09;1.45;;;0.98;;
35540;SDS011;21650;48.840;9.162;2023-07-20T14:33:35;2.45;;;1.05;;
35540;SDS011;21650;48.840;9.162;2023-07-20T14:36:01;2.60;;;1.00;;
35540;SDS011;21650;48.840;9.162;2023-07-20T14:38:30;1.33;;;1.08;;
35540;SDS011;21650;48.840;9.162;2023-07-20T14:40:56;1.42;;;1.00;;
35540;SDS011;21650;48.840;9.162;2023-07-20T14:43:22;1.55;;;0.85;;
35540;SDS011;21650;48.840;9.162;2023-07-20T14:45:48;5.35;;;1.63;;
35540;SDS011;21650;48.840;9.162;2023-07-20T14:48:13;2.35;;;0.95;;
35540;SDS011;21650;48.840;9.162;2023-07-20T14:50:39;2.47;;;0.82;;
35540;SDS011;21650;48.840;9.162;2023-07-20T14:53:05;2.53;;;1.13;;
35540;SDS011;21650;48.840;9.162;2023-07-20T14:55:30;4.03;;;1.10;;
35540;SDS011;21650;48.840;9.162;2023-07-20T14:57:56;2.42;;;0.82;;
35540;SDS011;21650;48.840;9.162;2023-07-20T15:00:22;1.58;;;0.82;;
35540;SDS011;21650;48.840;9.162;2023-07-20T15:02:47;2.45;;;1.10;;
35540;SDS011;21650;48.840;9.162;2023-07-20T15:05:21;1.33;;;0.93;;
35540;SDS011;21650;48.840;9.162;2023-07-20T15:07:47;1.05;;;0.88;;
35540;SDS011;21650;48.840;9.162;2023-07-20T15:10:13;1.63;;;1.08;;